Time;durP1;ratioP1;P1;durP2;ratioP2;P2;SDS_P1;SDS_P2;PMS_P1;PMS_P2;Temp;Humidity;BMP_temperature;BMP_pressure;BME280_temperature;BME280_humidity;BME280_pressure;Samples;Min_cycle;Max_cycle;Signal;HPM_P1;HPM_P2
2022/02/24 00:01:05;;;;;;;17.95;5.60;;;;;;;3.54;58.07;100967.56;4451160;32;32266;-83
2022/02/24 00:03:34;;;;;;;17.58;4.75;;;;;;;3.67;57.57;100974.59;4457820;32;33821;-83
2022/02/24 00:06:02;;;;;;;14.77;5.03;;;;;;;3.56;57.97;100971.03;4470867;32;33151;-82
2022/02/24 00:08:30;;;;;;;13.13;5.78;;;;;;;3.58;58.24;100974.56;4471708;32;33259;-82
2022/02/24 00:10:59;;;;;;;14.07;5.95;;;;;;;3.68;57.92;100962.37;4469408;32;34311;-83
2022/02/24 00:13:27;;;;;;;10.65;4.95;;;;;;;3.33;59.12;100960.53;4471501;32;34142;-82
2022/02/24 00:15:54;;;;;;;9.82;4.50;;;;;;;3.43;58.56;100964.06;4470290;32;34699;-82
2022/02/24 00:18:22;;;;;;;10.10;4.40;;;;;;;3.65;57.74;100955.41;4463097;31;33843;-82
2022/02/24 00:20:50;;;;;;;9.65;3.80;;;;;;;3.60;57.75;100951.91;4459462;32;33674;-82
2022/02/24 00:23:17;;;;;;;10.90;4.35;;;;;;;3.67;57.79;100953.69;4459611;32;33319;-82
2022/02/24 00:25:45;;;;;;;13.15;4.93;;;;;;;3.99;56.53;100948.53;4452581;32;34123;-82
2022/02/24 00:28:13;;;;;;;12.57;4.93;;;;;;;4.09;56.04;100957.25;4446441;31;33246;-82
2022/02/24 00:30:40;;;;;;;12.18;4.50;;;;;;;3.73;56.61;100952.81;4458865;32;34624;-82
2022/02/24 00:33:09;;;;;;;10.73;4.75;;;;;;;3.26;58.19;100946.56;4470170;32;33852;-82
2022/02/24 00:35:37;;;;;;;12.88;4.90;;;;;;;3.24;58.24;100947.44;4459495;32;33605;-82
2022/02/24 00:38:05;;;;;;;10.27;3.85;;;;;;;3.37;57.54;100951.84;4484077;32;33566;-83
2022/02/24 00:40:33;;;;;;;8.30;3.72;;;;;;;3.10;58.33;100955.19;4463915;32;33988;-82
2022/02/24 00:43:01;;;;;;;6.90;2.78;;;;;;;3.37;57.75;100959.69;4470714;32;33495;-81
2022/02/24 00:45:30;;;;;;;12.30;3.58;;;;;;;3.26;57.73;100957.00;4470009;32;33652;-82
2022/02/24 00:47:58;;;;;;;6.47;2.55;;;;;;;3.42;57.35;100957.06;4471373;32;33533;-82
2022/02/24 00:50:26;;;;;;;11.20;4.47;;;;;;;3.50;57.18;100966.69;4457023;32;33980;-82
2022/02/24 00:52:56;;;;;;;7.75;3.40;;;;;;;3.30;57.19;100961.38;4470764;32;33795;-81
2022/02/24 00:55:25;;;;;;;9.15;3.15;;;;;;;3.34;57.32;100955.31;4457892;32;33608;-83
2022/02/24 00:57:53;;;;;;;9.75;3.47;;;;;;;3.49;57.05;100953.62;4459075;32;33016;-81
2022/02/24 01:00:21;;;;;;;5.95;3.22;;;;;;;3.10;57.89;100947.38;4457371;32;34356;-82
2022/02/24 01:02:49;;;;;;;9.50;3.85;;;;;;;3.22;57.57;100944.81;4459105;31;33189;-82
2022/02/24 01:05:17;;;;;;;8.35;3.60;;;;;;;2.98;57.86;100949.91;4469732;32;34579;-82
2022/02/24 01:07:44;;;;;;;12.15;2.85;;;;;;;3.11;57.54;100951.72;4463057;32;33632;-82
2022/02/24 01:10:12;;;;;;;6.15;3.47;;;;;;;3.29;57.14;100948.34;4457090;32;34162;-82
2022/02/24 01:12:40;;;;;;;14.52;4.15;;;;;;;3.34;57.08;100954.44;4456805;32;33042;-82
2022/02/24 01:15:08;;;;;;;16.02;4.62;;;;;;;3.14;57.43;100959.56;4458487;32;33697;-81
2022/02/24 01:17:37;;;;;;;13.85;4.75;;;;;;;3.15;57.82;100963.94;4456637;32;33032;-81
2022/02/24 01:20:05;;;;;;;11.48;4.97;;;;;;;3.05;58.59;100967.34;4470449;32;33635;-81
2022/02/24 01:22:33;;;;;;;15.68;6.22;;;;;;;3.14;58.41;100977.84;4469857;32;32021;-82
2022/02/24 01:25:01;;;;;;;10.73;5.05;;;;;;;3.25;57.99;100972.66;4453476;31;32558;-82
2022/02/24 01:27:29;;;;;;;20.42;7.22;;;;;;;3.05;57.94;100962.13;4459428;32;33878;-81
2022/02/24 01:29:58;;;;;;;15.40;7.05;;;;;;;2.61;60.23;100964.44;4476334;31;34057;-82
2022/02/24 01:32:26;;;;;;;15.98;6.07;;;;;;;3.05;59.01;100964.75;4458829;32;33158;-82
2022/02/24 01:34:58;;;;;;;7.87;4.40;;;;;;;3.05;58.69;100970.81;4458804;32;33354;-82
2022/02/24 01:37:26;;;;;;;9.38;4.03;;;;;;;3.01;58.85;100974.28;4473383;32;34789;-82
2022/02/24 01:39:54;;;;;;;14.30;4.20;;;;;;;2.92;58.67;100969.00;4459318;32;33471;-81
2022/02/24 01:42:21;;;;;;;10.82;5.00;;;;;;;3.31;57.76;100975.31;4471552;32;32535;-81
2022/02/24 01:44:50;;;;;;;7.87;4.15;;;;;;;3.06;58.70;100974.31;4471289;32;33938;-81
2022/02/24 01:47:18;;;;;;;10.27;4.72;;;;;;;3.16;58.40;100973.50;4459123;32;35376;-80
2022/02/24 01:49:46;;;;;;;16.08;6.15;;;;;;;3.28;58.04;100973.56;4458300;32;34368;-82
2022/02/24 01:52:14;;;;;;;13.88;6.30;;;;;;;3.00;58.72;100969.06;4459400;32;34002;-81
2022/02/24 01:54:42;;;;;;;8.32;3.85;;;;;;;3.54;56.89;100967.56;4466377;31;33028;-80
2022/02/24 01:57:10;;;;;;;11.93;4.90;;;;;;;3.45;56.56;100964.91;4458588;32;34554;-81
2022/02/24 01:59:38;;;;;;;9.77;4.60;;;;;;;3.04;57.86;100968.22;4471361;32;33421;-81
2022/02/24 02:02:06;;;;;;;10.20;4.03;;;;;;;2.75;58.92;100971.53;4458197;32;32312;-81
2022/02/24 02:04:36;;;;;;;9.60;4.45;;;;;;;2.82;58.68;100970.69;4455578;31;34683;-80
2022/02/24 02:07:04;;;;;;;9.90;4.32;;;;;;;3.18;57.51;100966.56;4470246;32;33542;-81
2022/02/24 02:09:34;;;;;;;13.90;4.75;;;;;;;2.87;58.01;100967.25;4471341;32;33118;-80
2022/02/24 02:12:03;;;;;;;10.57;3.90;;;;;;;2.65;58.69;100966.22;4471109;32;32909;-81
2022/02/24 02:14:31;;;;;;;9.02;3.55;;;;;;;2.66;58.60;100963.63;4464980;32;32990;-82
2022/02/24 02:17:00;;;;;;;5.87;3.05;;;;;;;2.69;58.25;100971.47;4471297;32;34433;-82
2022/02/24 02:19:28;;;;;;;9.57;3.35;;;;;;;2.45;58.98;100968.66;4469974;32;32880;-81
2022/02/24 02:21:56;;;;;;;8.68;3.28;;;;;;;2.59;58.42;100969.66;4446135;32;32680;-81
2022/02/24 02:24:24;;;;;;;9.07;3.20;;;;;;;2.61;58.38;100967.94;4465323;32;33338;-81
2022/02/24 02:26:52;;;;;;;7.35;2.65;;;;;;;2.66;58.33;100958.41;4471715;32;33983;-81
2022/02/24 02:29:20;;;;;;;6.93;2.97;;;;;;;2.64;58.35;100965.34;4457005;32;33327;-81
2022/02/24 02:31:47;;;;;;;9.57;3.10;;;;;;;2.53;58.52;100970.47;4456757;32;32532;-81
2022/02/24 02:34:17;;;;;;;4.85;3.12;;;;;;;2.66;58.25;100962.72;4470872;32;34284;-81
2022/02/24 02:36:47;;;;;;;5.55;2.62;;;;;;;2.50;58.72;100962.63;4457931;32;34750;-82
2022/02/24 02:39:15;;;;;;;8.77;3.03;;;;;;;2.36;59.14;100960.78;4458268;32;32723;-81
2022/02/24 02:41:46;;;;;;;8.20;3.37;;;;;;;2.49;58.60;100958.28;4457053;32;33616;-82
2022/02/24 02:44:14;;;;;;;9.48;4.18;;;;;;;2.28;58.58;100953.78;4472112;32;33670;-82
2022/02/24 02:46:44;;;;;;;13.82;4.95;;;;;;;2.33;58.25;100952.91;4464325;32;33990;-82
2022/02/24 02:49:12;;;;;;;8.55;4.60;;;;;;;2.15;58.86;100957.12;4457900;32;33118;-81
2022/02/24 02:51:40;;;;;;;15.95;4.20;;;;;;;2.18;59.24;100944.09;4465818;32;32985;-81
2022/02/24 02:54:08;;;;;;;13.20;4.55;;;;;;;2.50;58.48;100938.28;4472204;32;33909;-81
2022/02/24 02:56:36;;;;;;;10.55;4.37;;;;;;;2.45;58.61;100953.03;4460079;32;33485;-82
2022/02/24 02:59:03;;;;;;;5.85;4.05;;;;;;;1.95;59.96;100958.69;4471412;32;33473;-81
2022/02/24 03:01:31;;;;;;;14.95;4.20;;;;;;;2.29;59.15;100955.53;4471032;32;33553;-81
2022/02/24 03:03:59;;;;;;;9.30;4.35;;;;;;;2.45;58.47;100959.13;4471409;32;33653;-81
2022/02/24 03:06:26;;;;;;;6.75;3.22;;;;;;;2.48;58.33;100955.66;4459789;31;34390;-81
2022/02/24 03:08:55;;;;;;;9.18;3.60;;;;;;;2.46;58.59;100949.56;4470751;32;34007;-81
2022/02/24 03:11:22;;;;;;;9.77;3.78;;;;;;;2.33;59.07;100953.81;4458149;32;33305;-81
2022/02/24 03:13:51;;;;;;;7.43;3.65;;;;;;;2.08;59.88;100960.53;4465434;32;32896;-81
2022/02/24 03:16:19;;;;;;;7.72;3.83;;;;;;;2.44;58.59;100946.94;4470914;32;34778;-81
2022/02/24 03:18:46;;;;;;;7.85;3.35;;;;;;;2.26;58.25;100960.69;4459496;32;33562;-82
2022/02/24 03:21:14;;;;;;;8.90;3.55;;;;;;;2.24;58.47;100965.03;4458724;32;33907;-82
2022/02/24 03:23:42;;;;;;;8.60;3.17;;;;;;;1.91;58.75;100956.91;4471008;32;34662;-81
2022/02/24 03:26:09;;;;;;;8.60;3.10;;;;;;;2.28;58.16;100958.13;4471949;32;33440;-82
2022/02/24 03:28:37;;;;;;;9.65;3.08;;;;;;;2.23;58.84;100965.91;4456992;32;33121;-82
2022/02/24 03:31:06;;;;;;;6.50;3.35;;;;;;;2.59;57.58;100956.63;4463624;32;32296;-82
2022/02/24 03:33:36;;;;;;;12.50;4.12;;;;;;;2.10;59.52;100964.03;4465542;31;33674;-81
2022/02/24 03:36:04;;;;;;;5.50;3.33;;;;;;;2.23;59.24;100958.09;4467103;31;32880;-82
2022/02/24 03:38:32;;;;;;;7.20;3.58;;;;;;;2.11;59.18;100963.16;4457325;32;34459;-82
2022/02/24 03:41:01;;;;;;;6.93;3.67;;;;;;;2.15;58.68;100962.34;4472822;32;33085;-81
2022/02/24 03:43:29;;;;;;;9.20;3.08;;;;;;;2.01;58.99;100966.56;4470787;32;33766;-81
2022/02/24 03:45:58;;;;;;;9.60;3.10;;;;;;;2.07;58.80;100965.72;4471057;32;33313;-81
2022/02/24 03:48:26;;;;;;;10.93;3.15;;;;;;;2.21;58.13;100964.12;4457587;32;33567;-82
2022/02/24 03:50:53;;;;;;;7.78;3.17;;;;;;;2.02;58.76;100968.28;4462023;32;33292;-82
2022/02/24 03:53:21;;;;;;;9.00;3.17;;;;;;;2.17;58.37;100967.56;4464709;31;33948;-82
2022/02/24 03:55:50;;;;;;;6.18;2.87;;;;;;;2.01;58.85;100969.16;4471737;32;32809;-80
2022/02/24 03:58:17;;;;;;;10.63;3.30;;;;;;;2.24;58.41;100962.44;4470821;32;33691;-82
2022/02/24 04:00:45;;;;;;;7.32;3.47;;;;;;;2.09;58.82;100964.91;4470633;32;34277;-82
2022/02/24 04:03:17;;;;;;;8.10;3.12;;;;;;;1.89;60.03;100961.22;4484577;32;33108;-82
2022/02/24 04:05:45;;;;;;;7.45;2.92;;;;;;;2.11;59.10;100962.31;4470706;32;33581;-83
2022/02/24 04:08:13;;;;;;;5.70;3.08;;;;;;;2.09;59.43;100962.28;4457910;32;33922;-81
2022/02/24 04:10:41;;;;;;;4.60;2.87;;;;;;;1.93;59.92;100968.19;4451268;32;32992;-82
2022/02/24 04:13:09;;;;;;;6.18;2.83;;;;;;;1.82;59.93;100962.00;4470650;31;34654;-81
2022/02/24 04:15:37;;;;;;;9.48;2.87;;;;;;;2.01;59.46;100950.91;4458182;32;34512;-83
2022/02/24 04:18:07;;;;;;;6.15;2.75;;;;;;;2.09;58.79;100951.87;4465707;31;34639;-82
2022/02/24 04:20:35;;;;;;;7.97;3.42;;;;;;;2.04;58.51;100943.13;4464612;32;33846;-82
2022/02/24 04:23:02;;;;;;;4.50;2.80;;;;;;;2.10;58.30;100942.31;4458826;32;34604;-83
2022/02/24 04:25:30;;;;;;;6.80;3.42;;;;;;;1.86;59.08;100938.63;4464982;32;33329;-82
2022/02/24 04:27:58;;;;;;;9.48;2.90;;;;;;;1.85;59.00;100943.78;4466797;31;33306;-83
2022/02/24 04:30:25;;;;;;;7.97;3.17;;;;;;;2.08;58.38;100937.06;4458607;32;33671;-83
2022/02/24 04:32:53;;;;;;;5.35;3.20;;;;;;;1.78;59.63;100942.88;4463798;32;33835;-82
2022/02/24 04:35:21;;;;;;;7.60;3.22;;;;;;;1.68;60.07;100941.03;4459356;32;33615;-81
2022/02/24 04:37:48;;;;;;;7.62;2.55;;;;;;;1.88;59.83;100933.41;4462378;32;33648;-81
2022/02/24 04:40:16;;;;;;;4.55;2.72;;;;;;;1.85;59.57;100933.38;4458655;32;32926;-81
2022/02/24 04:42:44;;;;;;;6.53;3.60;;;;;;;1.92;59.39;100946.50;4455006;32;32492;-81
2022/02/24 04:45:14;;;;;;;5.97;2.75;;;;;;;1.73;59.91;100958.44;4471491;32;33871;-81
2022/02/24 04:47:42;;;;;;;8.82;3.40;;;;;;;1.72;59.76;100948.91;4458720;32;34106;-82
2022/02/24 04:50:10;;;;;;;8.70;3.08;;;;;;;1.76;59.14;100949.81;4449972;32;33408;-81
2022/02/24 04:52:38;;;;;;;5.97;2.83;;;;;;;1.79;59.12;100949.81;4457256;32;33799;-81
2022/02/24 04:55:06;;;;;;;8.18;3.60;;;;;;;1.93;58.49;100949.97;4465869;32;33557;-82
2022/02/24 04:57:34;;;;;;;3.80;2.40;;;;;;;1.92;58.19;100945.63;4456594;32;33669;-81
2022/02/24 05:00:06;;;;;;;8.75;2.75;;;;;;;1.75;58.91;100948.03;4462361;32;32973;-81
2022/02/24 05:02:34;;;;;;;4.43;2.03;;;;;;;1.81;59.05;100957.66;4470175;32;33462;-81
2022/02/24 05:05:02;;;;;;;3.87;2.03;;;;;;;1.73;59.11;100958.44;4460148;32;33482;-81
2022/02/24 05:07:30;;;;;;;7.72;3.00;;;;;;;1.68;58.92;100949.72;4456945;32;33546;-81
2022/02/24 05:10:00;;;;;;;9.23;2.55;;;;;;;1.65;58.97;100952.28;4458852;32;33377;-81
2022/02/24 05:12:27;;;;;;;6.10;3.08;;;;;;;1.64;58.90;100953.13;4451813;31;33261;-81
2022/02/24 05:14:55;;;;;;;6.40;2.67;;;;;;;1.87;58.25;100953.38;4456960;32;34371;-82
2022/02/24 05:17:25;;;;;;;7.80;2.83;;;;;;;1.92;57.86;100951.69;4456818;32;33783;-81
2022/02/24 05:19:52;;;;;;;8.00;2.60;;;;;;;1.88;58.08;100954.25;4460119;31;32756;-81
2022/02/24 05:22:20;;;;;;;7.47;3.30;;;;;;;1.79;58.55;100955.91;4469754;32;33813;-82
2022/02/24 05:24:48;;;;;;;8.07;2.22;;;;;;;1.75;58.98;100955.84;4458252;32;32840;-82
2022/02/24 05:27:16;;;;;;;5.50;2.53;;;;;;;1.81;58.92;100960.28;4469585;32;33575;-82
2022/02/24 05:29:44;;;;;;;4.75;2.00;;;;;;;1.80;58.36;100967.19;4471632;31;34346;-82
2022/02/24 05:32:12;;;;;;;7.25;2.78;;;;;;;1.62;58.75;100978.28;4474366;32;33803;-82
2022/02/24 05:34:40;;;;;;;6.78;2.75;;;;;;;1.78;58.49;100979.34;4461862;32;34132;-82
2022/02/24 05:37:08;;;;;;;5.43;2.55;;;;;;;1.62;59.30;100975.69;4468630;32;35201;-84
2022/02/24 05:39:36;;;;;;;6.82;3.30;;;;;;;1.65;59.27;100978.31;4469906;32;33870;-83
2022/02/24 05:42:04;;;;;;;5.50;3.00;;;;;;;1.65;58.99;100978.31;4462739;32;32582;-82
2022/02/24 05:44:31;;;;;;;12.82;3.30;;;;;;;1.78;58.47;100968.91;4459248;31;34134;-82
2022/02/24 05:46:59;;;;;;;16.77;3.53;;;;;;;1.81;58.24;100970.69;4461211;32;33150;-82
2022/02/24 05:49:27;;;;;;;7.82;3.12;;;;;;;1.68;58.54;100977.47;4465452;31;32962;-82
2022/02/24 05:51:55;;;;;;;5.55;2.10;;;;;;;1.59;59.04;100974.78;4470066;32;33883;-83
2022/02/24 05:54:23;;;;;;;6.12;2.53;;;;;;;1.74;58.97;100988.84;4463107;31;33519;-82
2022/02/24 05:56:50;;;;;;;8.23;3.22;;;;;;;1.75;58.87;100992.31;4464652;31;33306;-83
2022/02/24 05:59:18;;;;;;;7.87;2.80;;;;;;;1.59;59.42;100987.78;4468641;32;33444;-83
2022/02/24 06:01:48;;;;;;;9.05;4.35;;;;;;;1.75;58.88;100985.38;4470519;32;33154;-82
2022/02/24 06:04:17;;;;;;;7.07;3.55;;;;;;;1.72;59.08;100980.16;4469059;32;33273;-81
2022/02/24 06:06:45;;;;;;;7.60;3.47;;;;;;;1.73;58.91;100974.06;4469124;32;34242;-82
2022/02/24 06:09:13;;;;;;;8.07;3.78;;;;;;;1.70;58.67;100966.22;4471560;31;33390;-82
2022/02/24 06:11:41;;;;;;;9.05;3.05;;;;;;;1.59;58.93;100967.84;4459737;32;32699;-82
2022/02/24 06:14:08;;;;;;;5.12;2.80;;;;;;;1.72;58.83;100956.72;4463528;32;34388;-83
2022/02/24 06:16:36;;;;;;;8.10;3.37;;;;;;;1.83;59.00;100962.03;4471348;32;34307;-82
2022/02/24 06:19:04;;;;;;;7.50;3.45;;;;;;;1.84;59.31;100949.88;4458154;32;33382;-82
2022/02/24 06:21:32;;;;;;;10.02;4.35;;;;;;;2.09;58.85;100964.00;4471018;31;34187;-82
2022/02/24 06:24:00;;;;;;;11.40;4.72;;;;;;;2.37;58.25;100957.31;4472477;32;33915;-82
2022/02/24 06:26:28;;;;;;;11.43;5.05;;;;;;;2.10;59.22;100965.78;4463846;31;32886;-81
2022/02/24 06:28:55;;;;;;;20.77;5.12;;;;;;;1.78;60.67;100963.72;4470774;32;33196;-82
2022/02/24 06:31:23;;;;;;;9.85;4.80;;;;;;;1.73;60.80;100960.19;4445632;31;33110;-82
2022/02/24 06:33:51;;;;;;;10.18;4.15;;;;;;;1.44;61.26;100962.47;4473034;31;32722;-83
2022/02/24 06:36:20;;;;;;;9.07;5.40;;;;;;;1.76;60.69;100952.41;4458301;32;34110;-82
2022/02/24 06:38:48;;;;;;;17.65;8.10;;;;;;;2.07;59.88;100958.78;4467893;31;34110;-82
2022/02/24 06:41:16;;;;;;;36.83;16.05;;;;;;;2.17;59.66;100952.78;4464638;32;33821;-82
2022/02/24 06:43:44;;;;;;;39.15;16.40;;;;;;;2.29;59.70;100950.31;4453360;31;33348;-82
2022/02/24 06:46:13;;;;;;;29.58;13.75;;;;;;;2.39;59.58;100942.56;4464446;32;33309;-83
2022/02/24 06:48:41;;;;;;;26.50;13.18;;;;;;;2.21;60.03;100938.94;4452965;31;31296;-82
2022/02/24 06:51:09;;;;;;;21.10;11.02;;;;;;;2.42;59.72;100938.25;4484891;32;33596;-83
2022/02/24 06:53:37;;;;;;;24.33;11.65;;;;;;;2.57;59.28;100937.50;4459294;32;34398;-82
2022/02/24 06:56:05;;;;;;;19.83;9.85;;;;;;;2.63;58.79;100942.75;4469174;32;34673;-83
2022/02/24 06:58:33;;;;;;;21.85;8.23;;;;;;;2.72;58.79;100945.41;4460865;32;33380;-82
2022/02/24 07:01:03;;;;;;;22.67;10.80;;;;;;;2.78;58.81;100942.84;4463639;32;33052;-82
2022/02/24 07:03:31;;;;;;;19.62;9.65;;;;;;;2.88;58.60;100946.38;4456753;32;34438;-82
2022/02/24 07:05:59;;;;;;;18.15;9.63;;;;;;;3.29;57.99;100938.75;4463602;32;33318;-82
2022/02/24 07:08:27;;;;;;;21.08;9.20;;;;;;;3.41;58.07;100940.53;4450530;32;32568;-82
2022/02/24 07:10:54;;;;;;;17.70;8.68;;;;;;;3.40;58.15;100945.75;4469153;32;34256;-82
2022/02/24 07:13:22;;;;;;;18.12;9.40;;;;;;;3.42;58.13;100944.00;4464534;32;33455;-82
2022/02/24 07:16:10;;;;;;;22.25;8.63;;;;;;;3.54;57.70;100949.28;4458662;32;33044;-82
2022/02/24 07:18:38;;;;;;;16.58;7.95;;;;;;;3.52;57.60;100943.19;4449925;32;33529;-82
2022/02/24 07:21:08;;;;;;;24.73;10.68;;;;;;;3.60;57.65;100946.69;4461974;32;32812;-82
2022/02/24 07:23:36;;;;;;;22.00;9.63;;;;;;;3.74;57.64;100944.97;4463483;32;34808;-83
2022/02/24 07:26:04;;;;;;;22.13;10.48;;;;;;;4.05;56.99;100940.69;4455591;32;33873;-82
2022/02/24 07:28:31;;;;;;;17.98;9.90;;;;;;;4.06;57.40;100942.44;4449088;32;31730;-82
2022/02/24 07:30:59;;;;;;;25.67;9.73;;;;;;;4.30;56.82;100940.72;4461765;32;34293;-82
2022/02/24 07:33:27;;;;;;;24.73;9.57;;;;;;;4.52;56.55;100931.13;4469328;32;33839;-82
2022/02/24 07:35:54;;;;;;;14.05;7.47;;;;;;;4.57;56.61;100939.84;4456153;32;33688;-82
2022/02/24 07:38:22;;;;;;;12.02;5.87;;;;;;;4.60;56.49;100939.81;4470614;32;32979;-82
2022/02/24 07:40:50;;;;;;;17.10;5.60;;;;;;;5.39;56.00;100933.50;4457170;32;33912;-84
2022/02/24 07:43:17;;;;;;;11.73;4.78;;;;;;;5.28;56.58;100933.56;4470291;32;34069;-84
2022/02/24 07:45:46;;;;;;;15.95;4.37;;;;;;;5.23;55.53;100932.69;4468829;32;34642;-85
2022/02/24 07:48:14;;;;;;;17.02;4.80;;;;;;;5.61;54.93;100921.16;4457843;32;33464;-85
2022/02/24 07:50:41;;;;;;;8.18;4.80;;;;;;;5.57;55.20;100928.16;4455755;32;33098;-85
2022/02/24 07:53:09;;;;;;;9.88;5.15;;;;;;;5.67;55.36;100923.75;4449966;32;33262;-85
2022/02/24 07:55:38;;;;;;;10.45;4.95;;;;;;;6.06;54.89;100908.66;4461835;32;32899;-84
2022/02/24 07:58:06;;;;;;;11.85;5.72;;;;;;;5.89;54.58;100920.12;4471094;32;33473;-85
2022/02/24 08:00:34;;;;;;;9.07;4.70;;;;;;;6.17;53.75;100914.69;4468292;32;33574;-85
2022/02/24 08:03:02;;;;;;;19.40;5.80;;;;;;;6.23;53.79;100921.66;4468480;32;34739;-85
2022/02/24 08:05:30;;;;;;;16.12;5.35;;;;;;;6.62;53.61;100915.19;4447595;32;32956;-85
2022/02/24 08:07:58;;;;;;;12.60;5.97;;;;;;;6.62;53.72;100915.19;4468700;32;33350;-85
2022/02/24 08:10:26;;;;;;;11.38;6.12;;;;;;;6.64;53.19;100910.78;4469171;32;33634;-85
2022/02/24 08:12:54;;;;;;;16.35;6.28;;;;;;;7.07;51.29;100902.44;4469929;32;33413;-85
2022/02/24 08:15:22;;;;;;;14.70;5.87;;;;;;;6.84;52.80;100907.97;4457090;32;33518;-85
2022/02/24 08:17:54;;;;;;;17.12;7.85;;;;;;;7.12;52.49;100900.63;4469741;32;33751;-85
2022/02/24 08:20:23;;;;;;;16.73;6.77;;;;;;;7.19;52.34;100890.03;4460716;32;34777;-85
2022/02/24 08:22:53;;;;;;;19.60;7.57;;;;;;;7.19;52.22;100890.03;4463894;32;33933;-85
2022/02/24 08:25:23;;;;;;;20.00;7.85;;;;;;;7.39;51.94;100889.78;4475639;32;33417;-85
2022/02/24 08:27:52;;;;;;;16.55;7.82;;;;;;;7.86;51.21;100877.72;4468690;32;33312;-85
2022/02/24 08:30:21;;;;;;;16.37;7.70;;;;;;;8.06;50.45;100879.16;4469026;32;33807;-85
2022/02/24 08:32:51;;;;;;;24.50;6.78;;;;;;;8.35;50.38;100874.28;4460649;32;34140;-85
2022/02/24 08:35:20;;;;;;;12.13;6.60;;;;;;;7.97;50.79;100880.16;4456134;32;33795;-85
2022/02/24 08:37:48;;;;;;;12.70;6.85;;;;;;;7.91;51.17;100873.25;4461453;32;32405;-85
2022/02/24 08:40:18;;;;;;;14.63;5.68;;;;;;;8.55;49.71;100865.22;4449309;32;32664;-85
2022/02/24 08:42:46;;;;;;;10.50;4.45;;;;;;;8.98;47.69;100858.22;4462119;32;34077;-86
2022/02/24 08:45:14;;;;;;;14.50;4.57;;;;;;;9.11;45.32;100864.06;4476266;32;34570;-85
2022/02/24 08:47:42;;;;;;;8.10;2.80;;;;;;;9.11;46.40;100869.34;4456000;32;33350;-85
2022/02/24 08:50:12;;;;;;;11.25;4.15;;;;;;;8.85;43.50;100867.25;4457117;32;33387;-85
2022/02/24 08:53:00;;;;;;;9.93;3.67;;;;;;;9.04;42.84;100859.84;4464554;32;33082;-84
2022/02/24 08:55:31;;;;;;;12.85;3.92;;;;;;;8.79;43.99;100861.25;4468482;32;33888;-85
2022/02/24 08:58:02;;;;;;;9.23;3.80;;;;;;;9.06;43.60;100855.41;4450999;32;33040;-85
2022/02/24 09:00:33;;;;;;;8.75;4.22;;;;;;;9.04;43.79;100862.47;4457141;32;33900;-85
2022/02/24 09:03:02;;;;;;;14.07;5.15;;;;;;;9.34;42.92;100858.31;4442937;32;33276;-85
2022/02/24 09:05:34;;;;;;;7.37;4.10;;;;;;;9.79;42.94;100846.78;4456512;32;33155;-85
2022/02/24 09:08:01;;;;;;;13.77;4.87;;;;;;;10.04;41.55;100839.12;4448653;32;32304;-84
2022/02/24 09:10:30;;;;;;;17.42;5.15;;;;;;;9.64;43.03;100848.03;4462033;32;33967;-85
2022/02/24 09:12:59;;;;;;;11.40;4.95;;;;;;;9.85;41.44;100836.09;4469081;32;34820;-84
2022/02/24 09:15:31;;;;;;;10.73;4.95;;;;;;;9.81;41.82;100845.81;4457508;32;33859;-85
2022/02/24 09:18:09;;;;;;;9.57;4.72;;;;;;;10.06;40.95;100846.09;4471985;32;31829;-84
2022/02/24 09:20:39;;;;;;;10.63;5.00;;;;;;;9.97;41.27;100841.06;4456656;32;35694;-85
2022/02/24 09:23:08;;;;;;;7.97;4.57;;;;;;;10.10;42.84;100842.47;4450851;32;33057;-85
2022/02/24 09:25:39;;;;;;;13.57;5.60;;;;;;;10.06;40.73;100840.81;4469803;32;33506;-84
2022/02/24 09:28:07;;;;;;;17.27;5.55;;;;;;;10.05;42.41;100832.94;4455365;32;33000;-85
2022/02/24 09:30:34;;;;;;;12.37;5.55;;;;;;;10.55;41.19;100828.16;4468220;32;34537;-85
2022/02/24 09:33:05;;;;;;;9.70;5.47;;;;;;;10.87;40.52;100822.84;4449107;32;32503;-85
2022/02/24 09:35:33;;;;;;;12.70;4.65;;;;;;;10.72;40.07;100837.34;4469108;32;34333;-85
2022/02/24 09:38:02;;;;;;;7.75;4.12;;;;;;;10.68;39.74;100829.53;4467657;32;33047;-85
2022/02/24 09:40:31;;;;;;;8.32;4.50;;;;;;;10.66;40.54;100826.09;4456167;32;32733;-85
2022/02/24 09:43:16;;;;;;;6.68;3.70;;;;;;;10.74;40.16;100824.09;4459700;32;34584;-85
2022/02/24 09:45:46;;;;;;;5.22;3.20;;;;;;;11.01;39.58;100814.50;4470084;32;34153;-84
2022/02/24 09:48:17;;;;;;;8.75;3.45;;;;;;;10.96;41.04;100819.06;4455516;32;33078;-84
2022/02/24 09:50:51;;;;;;;6.70;3.00;;;;;;;11.17;39.33;100812.28;4470456;32;33937;-84
2022/02/24 09:53:20;;;;;;;7.65;2.72;;;;;;;11.08;40.38;100807.28;4466120;32;33116;-85
2022/02/24 09:55:48;;;;;;;7.53;3.30;;;;;;;11.72;38.55;100800.84;4464236;31;33176;-86
2022/02/24 09:58:16;;;;;;;11.10;3.10;;;;;;;12.12;37.24;100798.69;4487029;31;34160;-86
2022/02/24 10:01:02;;;;;;;6.55;2.80;;;;;;;11.72;39.33;100799.97;4474789;31;33862;-86
2022/02/24 10:03:44;;;;;;;6.78;2.87;;;;;;;11.86;38.88;100802.19;4454820;32;33284;-87
2022/02/24 10:06:14;;;;;;;6.72;2.85;;;;;;;12.01;39.07;100792.00;4450541;32;33488;-86
2022/02/24 10:08:44;;;;;;;6.37;2.70;;;;;;;11.91;37.24;100795.84;4459621;32;33447;-86
2022/02/24 10:11:27;;;;;;;5.40;2.60;;;;;;;12.12;37.08;100782.81;4460876;31;32662;-86
2022/02/24 10:14:30;;;;;;;8.63;3.62;;;;;;;12.50;35.68;100784.12;4463879;32;33738;-86
2022/02/24 10:17:09;;;;;;;7.20;2.58;;;;;;;12.26;36.18;100781.41;4460478;32;34047;-87
2022/02/24 10:19:43;;;;;;;7.18;2.37;;;;;;;12.46;36.51;100777.19;4459468;32;33239;-87
2022/02/24 10:22:19;;;;;;;4.55;2.15;;;;;;;12.08;35.10;100781.19;4470039;32;33129;-87
2022/02/24 10:24:58;;;;;;;5.30;2.33;;;;;;;12.26;35.55;100773.47;4458981;32;34486;-86
2022/02/24 10:27:28;;;;;;;6.60;3.17;;;;;;;12.69;35.09;100768.41;4452201;32;32724;-87
2022/02/24 10:30:16;;;;;;;6.47;2.33;;;;;;;12.65;36.68;100756.19;4455198;32;33573;-87
2022/02/24 10:32:49;;;;;;;4.37;2.28;;;;;;;13.12;35.25;100756.19;4467342;32;33946;-87
2022/02/24 10:35:38;;;;;;;8.73;2.20;;;;;;;13.39;35.50;100739.22;4459963;32;34162;-87
2022/02/24 10:38:08;;;;;;;13.45;2.97;;;;;;;13.28;34.78;100738.75;4462144;32;34453;-86
2022/02/24 10:40:48;;;;;;;6.20;2.40;;;;;;;13.61;34.79;100743.62;4476738;31;33500;-86
2022/02/24 10:43:18;;;;;;;13.98;2.53;;;;;;;13.71;35.63;100739.66;4453503;31;33320;-86
2022/02/24 10:46:03;;;;;;;10.85;2.85;;;;;;;13.90;33.35;100731.78;4471993;32;33056;-86
2022/02/24 10:48:33;;;;;;;6.75;2.10;;;;;;;14.06;33.53;100725.78;4471741;32;33356;-87
2022/02/24 10:51:05;;;;;;;5.62;2.45;;;;;;;14.26;33.84;100722.22;4459730;32;33335;-87
2022/02/24 10:53:35;;;;;;;6.65;2.37;;;;;;;14.48;33.83;100722.19;4467749;31;34350;-86
2022/02/24 10:56:10;;;;;;;7.47;2.47;;;;;;;14.04;32.79;100716.13;4472390;32;33871;-89
2022/02/24 10:58:43;;;;;;;9.25;2.80;;;;;;;14.22;32.58;100719.78;4472186;31;33272;-86
2022/02/24 11:01:18;;;;;;;3.47;2.28;;;;;;;13.99;34.13;100711.00;4478614;32;33748;-86
2022/02/24 11:03:48;;;;;;;10.20;2.47;;;;;;;14.27;32.58;100699.19;4450535;32;34146;-87
2022/02/24 11:06:20;;;;;;;7.33;2.50;;;;;;;13.85;33.01;100700.12;4452380;31;33469;-87
2022/02/24 11:08:50;;;;;;;5.72;2.53;;;;;;;14.32;33.15;100689.22;4455628;32;33230;-87
2022/02/24 11:11:24;;;;;;;15.57;2.70;;;;;;;14.45;31.87;100677.09;4462462;31;32620;-87
2022/02/24 11:13:54;;;;;;;4.37;1.50;;;;;;;14.68;30.25;100669.91;4461000;32;33841;-87
2022/02/24 11:16:22;;;;;;;4.32;1.35;;;;;;;14.47;30.86;100659.28;4454414;32;33004;-88
2022/02/24 11:18:52;;;;;;;4.18;2.10;;;;;;;14.75;30.78;100660.69;4461509;32;33809;-87
2022/02/24 11:21:21;;;;;;;8.02;1.52;;;;;;;14.49;29.21;100654.81;4461556;32;33617;-87
2022/02/24 11:23:51;;;;;;;4.07;1.65;;;;;;;14.59;30.17;100652.59;4461520;31;33907;-86
2022/02/24 11:26:21;;;;;;;5.57;1.12;;;;;;;14.48;29.88;100658.41;4472939;32;34236;-87
2022/02/24 11:28:57;;;;;;;3.37;1.20;;;;;;;14.45;30.19;100647.88;4458311;32;33823;-87
2022/02/24 11:31:44;;;;;;;8.63;1.27;;;;;;;14.34;30.77;100632.44;4459920;32;34145;-87
2022/02/24 11:34:12;;;;;;;3.53;1.55;;;;;;;15.07;30.79;100638.72;4472852;31;33958;-87
2022/02/24 11:37:02;;;;;;;8.75;1.87;;;;;;;15.50;32.89;100636.59;4458491;32;32728;-88
2022/02/24 11:39:44;;;;;;;4.97;1.87;;;;;;;14.78;28.43;100616.22;4474628;32;33876;-88